Time;durP1;ratioP1;P1;durP2;ratioP2;P2;SDS_P1;SDS_P2;PMS_P1;PMS_P2;Temp;Humidity;BMP_temperature;BMP_pressure;BME280_temperature;BME280_humidity;BME280_pressure;Samples;Min_cycle;Max_cycle;Signal;HPM_P1;HPM_P2
2022/10/20 00:00:20;;;;;;;21.88;13.73;;;;;;;14.49;78.08;95312.91;5053537;28;20159;-84
2022/10/20 00:02:45;;;;;;;23.35;13.95;;;;;;;14.33;77.50;95278.03;5068536;28;20194;-84
2022/10/20 00:05:10;;;;;;;22.10;15.10;;;;;;;14.04;77.77;95252.31;5053130;28;20591;-83
2022/10/20 00:07:36;;;;;;;25.20;13.70;;;;;;;14.29;77.13;95286.63;5052905;28;20186;-83
2022/10/20 00:10:01;;;;;;;20.05;13.30;;;;;;;14.04;77.14;95249.66;5053201;28;20183;-83
2022/10/20 00:12:27;;;;;;;22.53;13.03;;;;;;;14.07;76.30;95254.53;5053512;28;20171;-83
2022/10/20 00:14:52;;;;;;;20.37;12.40;;;;;;;14.02;76.33;95261.50;5052707;28;20214;-84
2022/10/20 00:17:18;;;;;;;20.03;12.67;;;;;;;14.07;75.95;95269.59;5053032;28;20654;-83
2022/10/20 00:19:46;;;;;;;19.27;11.95;;;;;;;14.02;75.86;95253.56;5051735;28;20630;-83
2022/10/20 00:22:12;;;;;;;19.13;13.43;;;;;;;14.00;75.54;95250.34;5053353;28;20175;-83
2022/10/20 00:24:37;;;;;;;18.90;12.40;;;;;;;14.08;75.23;95252.69;5053225;28;20505;-83
2022/10/20 00:27:03;;;;;;;24.33;12.23;;;;;;;14.34;75.21;95294.75;5052739;28;20222;-83
2022/10/20 00:29:28;;;;;;;15.30;11.00;;;;;;;13.97;74.30;95251.59;5052965;28;20182;-83
2022/10/20 00:31:53;;;;;;;16.00;11.00;;;;;;;13.94;74.60;95260.78;5052688;28;20175;-83
2022/10/20 00:34:19;;;;;;;13.80;10.03;;;;;;;13.60;74.01;95197.88;5067932;28;20186;-83
2022/10/20 00:36:44;;;;;;;14.60;9.67;;;;;;;13.81;74.08;95231.81;5073178;28;20668;-82
2022/10/20 00:39:10;;;;;;;15.77;10.30;;;;;;;14.15;74.03;95290.47;5076766;28;20179;-83
2022/10/20 00:41:36;;;;;;;16.40;10.23;;;;;;;13.93;73.27;95272.38;5065730;28;20174;-83
2022/10/20 00:44:39;;;;;;;11.50;9.13;;;;;;;14.01;73.42;95296.97;5071303;28;20174;-83
2022/10/20 00:47:07;;;;;;;18.07;9.13;;;;;;;13.74;73.71;95254.09;5072198;28;20202;-83
2022/10/20 00:49:32;;;;;;;12.80;9.17;;;;;;;13.99;73.69;95289.25;5071696;28;20689;-83
2022/10/20 00:51:58;;;;;;;14.57;9.87;;;;;;;14.00;73.28;95288.22;5072439;28;20165;-83
2022/10/20 00:54:26;;;;;;;10.80;8.40;;;;;;;13.80;72.39;95255.88;5072175;28;20536;-83
2022/10/20 00:56:54;;;;;;;12.70;9.23;;;;;;;13.70;72.87;95237.84;5072515;28;20637;-83
2022/10/20 00:59:23;;;;;;;12.80;8.70;;;;;;;13.74;72.43;95239.03;5070846;28;20174;-83
2022/10/20 01:01:48;;;;;;;19.63;8.63;;;;;;;14.05;71.73;95295.47;5072308;28;20170;-83
2022/10/20 01:04:14;;;;;;;10.93;8.03;;;;;;;13.69;71.97;95246.81;5072342;28;20258;-83
2022/10/20 01:06:39;;;;;;;10.90;8.43;;;;;;;13.97;71.53;95288.66;5072135;28;20174;-83
2022/10/20 01:09:05;;;;;;;12.00;8.17;;;;;;;13.69;71.35;95240.72;5072359;28;20165;-83
2022/10/20 01:11:49;;;;;;;13.90;8.70;;;;;;;13.84;71.41;95299.38;5072333;28;20174;-84
2022/10/20 01:14:37;;;;;;;11.37;7.07;;;;;;;13.50;72.05;95234.59;5072795;28;20166;-83
2022/10/20 01:17:18;;;;;;;18.40;7.30;;;;;;;13.84;71.03;95288.78;5067859;28;20237;-83
2022/10/20 01:20:19;;;;;;;11.53;7.67;;;;;;;13.65;71.07;95272.09;5059708;28;20183;-83
2022/10/20 01:23:21;;;;;;;13.90;8.10;;;;;;;13.87;71.01;95301.59;5052334;28;20163;-83
2022/10/20 01:26:06;;;;;;;12.50;7.33;;;;;;;13.87;70.51;95293.66;5066046;28;20173;-83
2022/10/20 01:29:04;;;;;;;9.77;7.33;;;;;;;13.86;70.92;95292.84;5087559;28;20628;-84
2022/10/20 01:31:38;;;;;;;10.47;7.13;;;;;;;13.87;70.83;95299.75;5070639;28;20571;-83
2022/10/20 01:34:33;;;;;;;9.83;7.03;;;;;;;13.92;70.95;95301.75;5072294;28;20158;-83
2022/10/20 01:37:07;;;;;;;15.20;7.63;;;;;;;13.73;70.11;95263.88;5063875;28;20222;-84
2022/10/20 01:39:35;;;;;;;11.77;6.80;;;;;;;13.85;70.37;95295.69;5071971;28;20154;-83
2022/10/20 01:42:10;;;;;;;9.37;7.00;;;;;;;13.82;70.58;95299.59;5071912;28;20166;-84
2022/10/20 01:44:40;;;;;;;12.70;7.37;;;;;;;13.65;71.06;95290.63;5072032;28;20206;-83
2022/10/20 01:47:09;;;;;;;13.07;7.83;;;;;;;13.51;71.29;95267.97;5072469;28;20190;-83
2022/10/20 01:49:35;;;;;;;13.80;7.10;;;;;;;13.55;71.82;95290.31;5070517;28;20272;-83
2022/10/20 01:52:00;;;;;;;12.23;8.23;;;;;;;13.45;72.04;95282.06;5071701;28;20174;-83
2022/10/20 01:54:28;;;;;;;10.27;7.50;;;;;;;13.55;72.37;95299.06;5073969;28;20184;-83
2022/10/20 01:57:20;;;;;;;11.53;7.30;;;;;;;13.54;72.41;95304.56;5071704;28;20624;-83
2022/10/20 02:00:00;;;;;;;14.87;7.90;;;;;;;13.42;72.82;95311.56;5045032;28;20688;-82
2022/10/20 02:02:39;;;;;;;9.33;7.30;;;;;;;13.19;72.99;95285.75;5066313;28;20198;-82
2022/10/20 02:05:26;;;;;;;12.23;8.13;;;;;;;13.24;73.55;95309.69;5056513;28;20232;-82
2022/10/20 02:07:59;;;;;;;9.83;7.13;;;;;;;12.82;73.56;95259.16;5053967;28;20199;-82
2022/10/20 02:10:31;;;;;;;12.53;8.00;;;;;;;12.97;74.31;95292.41;5055730;28;20190;-81
2022/10/20 02:13:02;;;;;;;12.57;8.13;;;;;;;12.62;74.54;95252.41;5055478;28;20166;-82
2022/10/20 02:15:31;;;;;;;11.93;7.57;;;;;;;12.69;74.78;95279.59;5055386;28;20254;-82
2022/10/20 02:18:00;;;;;;;14.17;9.50;;;;;;;12.94;74.90;95314.78;5053924;28;20167;-82
2022/10/20 02:20:28;;;;;;;14.43;8.63;;;;;;;12.74;75.37;95290.31;5053786;28;20178;-82
2022/10/20 02:22:56;;;;;;;11.73;8.37;;;;;;;12.35;76.08;95257.03;5055374;28;20161;-82
2022/10/20 02:25:23;;;;;;;12.20;8.70;;;;;;;12.55;76.89;95309.72;5055271;28;20163;-82
2022/10/20 02:27:49;;;;;;;12.53;7.87;;;;;;;12.49;77.28;95321.94;5054887;28;20203;-82
2022/10/20 02:30:17;;;;;;;13.43;8.40;;;;;;;12.46;77.48;95325.00;5054779;28;20250;-82
2022/10/20 02:33:13;;;;;;;15.37;7.73;;;;;;;12.49;77.08;95327.22;5055374;28;20550;-82
2022/10/20 02:35:47;;;;;;;11.80;8.13;;;;;;;12.45;76.82;95328.69;5055259;28;20167;-82
2022/10/20 02:38:12;;;;;;;15.97;9.40;;;;;;;12.23;76.91;95309.69;5055319;28;20161;-82
2022/10/20 02:40:38;;;;;;;17.57;8.60;;;;;;;12.12;76.79;95297.13;5054712;28;20163;-82
2022/10/20 02:43:03;;;;;;;17.70;9.20;;;;;;;11.86;77.15;95279.56;5054528;28;20179;-82
2022/10/20 02:45:28;;;;;;;14.43;9.00;;;;;;;11.91;77.61;95306.16;5068322;28;20186;-82
2022/10/20 02:47:54;;;;;;;12.83;9.77;;;;;;;11.86;78.72;95340.22;5065977;28;20229;-82
2022/10/20 02:50:19;;;;;;;14.40;9.50;;;;;;;11.83;78.93;95343.31;5072026;28;20309;-81
2022/10/20 02:52:44;;;;;;;13.43;8.93;;;;;;;11.84;78.92;95341.47;5065754;28;20185;-83
2022/10/20 02:55:10;;;;;;;13.63;9.33;;;;;;;11.71;79.63;95345.72;5065208;28;20177;-82
2022/10/20 02:57:35;;;;;;;13.47;9.13;;;;;;;11.22;81.68;95322.44;5080883;28;20696;-82
2022/10/20 03:00:01;;;;;;;15.17;8.80;;;;;;;10.98;82.06;95297.50;5053087;28;20237;-82
2022/10/20 03:02:26;;;;;;;17.07;10.20;;;;;;;10.80;82.68;95288.59;5054343;28;20750;-82
2022/10/20 03:04:51;;;;;;;17.63;11.67;;;;;;;10.47;83.46;95255.13;5054291;28;20209;-82
2022/10/20 03:07:17;;;;;;;19.17;11.77;;;;;;;10.69;83.84;95297.88;5053858;28;20199;-83
2022/10/20 03:09:43;;;;;;;15.77;10.23;;;;;;;10.47;83.89;95254.28;5069550;28;20167;-82
2022/10/20 03:12:08;;;;;;;16.63;9.90;;;;;;;10.90;84.34;95317.94;5053509;28;20217;-82
2022/10/20 03:14:33;;;;;;;22.63;10.67;;;;;;;10.66;84.50;95282.47;5054605;28;20167;-82
2022/10/20 03:16:59;;;;;;;14.73;9.60;;;;;;;10.93;84.41;95326.28;5053939;28;20560;-82
2022/10/20 03:19:24;;;;;;;13.63;9.50;;;;;;;11.26;83.79;95347.38;5054143;28;20170;-82
2022/10/20 03:21:50;;;;;;;14.30;9.53;;;;;;;10.89;84.00;95288.19;5051994;28;20936;-82
2022/10/20 03:24:15;;;;;;;12.67;8.80;;;;;;;10.83;84.13;95288.97;5056760;28;20179;-84
2022/10/20 03:26:41;;;;;;;13.47;8.53;;;;;;;10.98;84.16;95321.19;5062571;28;20752;-85
2022/10/20 03:29:06;;;;;;;16.80;8.83;;;;;;;10.82;84.32;95308.44;5056390;28;20175;-85
2022/10/20 03:31:31;;;;;;;15.23;10.37;;;;;;;11.24;83.96;95365.19;5065001;28;20174;-81
2022/10/20 03:33:57;;;;;;;13.40;9.00;;;;;;;11.21;84.08;95364.81;5062194;28;20316;-81
2022/10/20 03:36:22;;;;;;;13.70;8.27;;;;;;;10.92;83.88;95302.75;5052561;28;20209;-81
2022/10/20 03:38:48;;;;;;;15.13;9.27;;;;;;;11.30;83.60;95355.69;5054960;28;20175;-81
2022/10/20 03:41:13;;;;;;;14.87;9.70;;;;;;;11.04;84.15;95334.59;5060383;28;20175;-82
2022/10/20 03:43:39;;;;;;;14.43;9.17;;;;;;;10.92;84.53;95329.91;5061953;28;20178;-82
2022/10/20 03:46:07;;;;;;;19.97;11.07;;;;;;;11.28;84.00;95376.97;5063814;28;20255;-82
2022/10/20 03:48:33;;;;;;;16.03;11.53;;;;;;;11.36;83.86;95373.31;5063276;28;20512;-81
2022/10/20 03:51:00;;;;;;;17.38;11.27;;;;;;;11.06;83.37;95328.13;5063810;28;20531;-81
2022/10/20 03:53:25;;;;;;;14.17;10.20;;;;;;;11.41;83.00;95375.38;5064078;28;20174;-81
2022/10/20 03:55:51;;;;;;;15.33;9.77;;;;;;;11.14;83.63;95366.63;5063102;28;20281;-81
2022/10/20 03:58:16;;;;;;;18.00;11.13;;;;;;;11.06;84.50;95362.38;5052517;28;20465;-81
2022/10/20 04:00:42;;;;;;;15.83;9.40;;;;;;;11.17;84.17;95374.94;5055070;28;20175;-81
2022/10/20 04:03:08;;;;;;;14.97;10.60;;;;;;;10.92;83.59;95337.81;5064669;28;20167;-81
2022/10/20 04:05:33;;;;;;;15.57;9.23;;;;;;;10.99;82.90;95327.28;5062785;28;20656;-82
2022/10/20 04:07:58;;;;;;;16.37;10.23;;;;;;;10.99;82.66;95324.66;5063348;28;20199;-82
2022/10/20 04:10:24;;;;;;;18.90;10.70;;;;;;;11.40;82.33;95387.75;5073112;28;20163;-82
2022/10/20 04:12:50;;;;;;;20.53;10.00;;;;;;;11.38;81.70;95389.75;5064864;28;20190;-82
2022/10/20 04:15:17;;;;;;;18.83;10.60;;;;;;;11.30;81.81;95382.88;5059545;28;20182;-82
2022/10/20 04:17:43;;;;;;;16.07;10.90;;;;;;;11.22;82.44;95387.53;5056531;28;20243;-82
2022/10/20 04:20:09;;;;;;;20.75;11.63;;;;;;;11.14;82.66;95375.34;5057508;28;20469;-81
2022/10/20 04:22:35;;;;;;;13.47;9.40;;;;;;;10.98;84.43;95381.00;5052792;28;20256;-81
2022/10/20 04:25:00;;;;;;;15.47;10.53;;;;;;;10.80;86.01;95378.13;5055472;28;20159;-83
2022/10/20 04:27:27;;;;;;;19.57;9.97;;;;;;;10.98;85.85;95378.38;5078576;28;20193;-83
2022/10/20 04:29:53;;;;;;;15.30;9.70;;;;;;;10.68;86.11;95314.69;5064440;28;20583;-87
2022/10/20 04:32:18;;;;;;;14.73;9.10;;;;;;;10.80;85.33;95320.19;5059270;28;20185;-83
2022/10/20 04:34:44;;;;;;;14.18;9.63;;;;;;;11.24;85.62;95378.38;5064254;28;20992;-81
2022/10/20 04:37:09;;;;;;;21.43;11.60;;;;;;;11.32;85.03;95382.66;5061370;28;20262;-82
2022/10/20 04:39:34;;;;;;;17.33;10.83;;;;;;;10.83;84.95;95296.88;5060594;28;20414;-82
2022/10/20 04:42:00;;;;;;;15.17;9.50;;;;;;;11.37;84.40;95382.84;5052974;28;20171;-82
2022/10/20 04:44:25;;;;;;;15.37;10.60;;;;;;;11.12;83.90;95329.94;5052632;28;20179;-82
2022/10/20 04:46:53;;;;;;;16.60;10.30;;;;;;;11.47;83.82;95380.63;5052137;28;20421;-82
2022/10/20 04:49:18;;;;;;;16.53;11.10;;;;;;;11.21;83.35;95344.53;5060851;28;20607;-81
2022/10/20 04:51:43;;;;;;;18.67;11.00;;;;;;;11.49;83.22;95398.88;5061178;28;20171;-82
2022/10/20 04:54:09;;;;;;;21.30;11.43;;;;;;;11.41;82.75;95383.28;5060877;28;20167;-82
2022/10/20 04:56:34;;;;;;;23.83;11.00;;;;;;;11.42;83.00;95387.50;5061004;28;20186;-82
2022/10/20 04:59:00;;;;;;;16.43;10.60;;;;;;;11.01;83.51;95348.97;5061287;28;20190;-82
2022/10/20 05:01:28;;;;;;;23.27;10.87;;;;;;;11.24;83.62;95385.50;5061612;28;20242;-82
2022/10/20 05:03:53;;;;;;;17.77;11.67;;;;;;;10.92;83.81;95348.34;5087664;28;20605;-81
2022/10/20 05:06:21;;;;;;;21.20;12.47;;;;;;;10.90;84.52;95378.53;5066881;28;20254;-82
2022/10/20 05:08:50;;;;;;;18.90;12.33;;;;;;;11.10;84.74;95416.28;5060998;28;20320;-81
2022/10/20 05:11:16;;;;;;;21.70;11.87;;;;;;;11.21;85.29;95417.53;5080787;28;20232;-82
2022/10/20 05:13:42;;;;;;;17.37;11.03;;;;;;;11.52;83.94;95416.94;5063677;28;20571;-81
2022/10/20 05:16:09;;;;;;;28.93;12.17;;;;;;;11.81;82.88;95413.09;5070432;28;20182;-82
2022/10/20 05:18:34;;;;;;;32.83;12.70;;;;;;;11.64;81.92;95389.75;5065378;28;20173;-82
2022/10/20 05:21:24;;;;;;;24.73;12.13;;;;;;;11.80;81.34;95393.81;5063366;28;20245;-81
2022/10/20 05:23:58;;;;;;;20.73;11.57;;;;;;;11.91;81.14;95418.78;5052871;28;20282;-82
2022/10/20 05:26:24;;;;;;;30.27;13.80;;;;;;;12.12;80.75;95420.34;5052400;28;20548;-81
2022/10/20 05:28:51;;;;;;;20.17;12.50;;;;;;;12.56;78.99;95409.88;5052000;28;20274;-82
2022/10/20 05:31:19;;;;;;;19.77;12.10;;;;;;;12.88;76.95;95389.63;5052136;28;20559;-82
2022/10/20 05:33:46;;;;;;;19.57;11.07;;;;;;;13.50;75.05;95448.84;5052189;28;20181;-82
2022/10/20 05:36:14;;;;;;;23.57;11.50;;;;;;;13.58;73.76;95454.69;5053695;28;20174;-82
2022/10/20 05:38:40;;;;;;;16.97;11.63;;;;;;;13.75;73.24;95459.47;5057121;28;20163;-82
2022/10/20 05:41:06;;;;;;;20.60;12.10;;;;;;;14.68;71.04;95461.06;5058074;28;20174;-82
2022/10/20 05:43:32;;;;;;;17.08;10.45;;;;;;;15.65;65.15;95410.63;5087222;28;20185;-82
2022/10/20 05:45:57;;;;;;;17.67;9.50;;;;;;;17.11;62.15;95473.44;5060993;28;20198;-82
2022/10/20 05:48:23;;;;;;;16.27;8.50;;;;;;;18.08;57.82;95458.13;5057386;28;20207;-83
2022/10/20 05:50:48;;;;;;;16.55;10.07;;;;;;;19.02;54.47;95492.88;5056023;28;20182;-84
2022/10/20 05:53:13;;;;;;;23.20;9.57;;;;;;;19.35;52.46;95462.56;5055727;28;20167;-84
2022/10/20 05:55:39;;;;;;;16.58;10.73;;;;;;;20.06;51.56;95501.53;5056009;28;20187;-84
2022/10/20 05:58:04;;;;;;;26.77;15.93;;;;;;;19.87;50.91;95509.09;5056047;28;20536;-82
2022/10/20 06:00:40;;;;;;;18.60;13.93;;;;;;;19.37;52.29;95463.91;5056846;28;20156;-86
2022/10/20 06:03:05;;;;;;;18.50;12.95;;;;;;;19.44;52.99;95512.63;5068298;28;20163;-85
2022/10/20 06:05:30;;;;;;;16.35;10.82;;;;;;;19.37;53.28;95525.31;5064591;28;20178;-82
2022/10/20 06:07:56;;;;;;;15.23;8.93;;;;;;;19.64;52.35;95500.53;5063836;28;20671;-83
2022/10/20 06:10:21;;;;;;;20.02;12.00;;;;;;;19.36;52.69;95481.00;5063974;28;20167;-86
2022/10/20 06:12:47;;;;;;;18.10;11.38;;;;;;;20.22;51.64;95524.66;5063493;28;20273;-83
2022/10/20 06:15:12;;;;;;;20.50;14.40;;;;;;;20.83;50.12;95530.50;5062479;28;20179;-83
2022/10/20 06:17:37;;;;;;;12.05;9.57;;;;;;;20.81;48.69;95449.63;5058188;28;20175;-83
2022/10/20 06:20:03;;;;;;;20.27;12.10;;;;;;;21.76;46.54;95544.06;5066103;28;20224;-82
2022/10/20 06:22:29;;;;;;;15.98;9.75;;;;;;;21.22;48.71;95524.84;5056731;28;20642;-82
2022/10/20 06:24:54;;;;;;;14.60;9.88;;;;;;;21.32;48.12;95516.84;5066056;28;20912;-83
2022/10/20 06:27:19;;;;;;;14.40;10.45;;;;;;;21.69;47.58;95544.34;5063329;28;20202;-84
2022/10/20 06:29:45;;;;;;;26.63;10.10;;;;;;;21.68;47.26;95552.63;5070864;28;20645;-83
2022/10/20 06:32:10;;;;;;;20.30;10.43;;;;;;;20.76;48.94;95547.84;5064826;28;20178;-81
2022/10/20 06:34:36;;;;;;;14.32;9.82;;;;;;;20.49;49.49;95513.94;5063570;28;20597;-82
2022/10/20 06:37:01;;;;;;;17.13;10.90;;;;;;;20.02;52.21;95551.19;5063491;28;20212;-83
2022/10/20 06:39:26;;;;;;;18.73;10.93;;;;;;;20.90;50.43;95557.84;5063273;28;20171;-82
2022/10/20 06:41:53;;;;;;;11.27;9.23;;;;;;;22.43;46.54;95556.56;5063207;28;20285;-81
2022/10/20 06:44:20;;;;;;;12.50;9.20;;;;;;;23.59;43.53;95561.00;5061937;28;20175;-83
2022/10/20 06:46:46;;;;;;;12.23;9.07;;;;;;;22.80;43.51;95513.34;5062788;28;20178;-82
2022/10/20 06:49:13;;;;;;;15.00;8.57;;;;;;;21.94;45.61;95554.31;5053361;28;20227;-82
2022/10/20 06:51:39;;;;;;;14.07;8.00;;;;;;;21.42;47.59;95552.53;5054213;28;20171;-82
2022/10/20 06:54:05;;;;;;;16.48;8.45;;;;;;;20.93;48.67;95559.97;5078435;28;20755;-81
2022/10/20 06:56:33;;;;;;;12.98;8.52;;;;;;;19.86;50.05;95495.97;5068966;28;20174;-81
2022/10/20 06:59:00;;;;;;;13.65;8.68;;;;;;;20.12;51.10;95570.00;5064960;28;20159;-82
2022/10/20 07:01:26;;;;;;;11.80;8.07;;;;;;;20.52;50.15;95569.59;5060691;28;20202;-81
2022/10/20 07:03:58;;;;;;;15.52;8.10;;;;;;;20.22;50.64;95574.66;5064835;28;20173;-81
2022/10/20 07:06:29;;;;;;;11.43;7.45;;;;;;;19.76;51.98;95578.72;5061694;28;20177;-82
2022/10/20 07:08:56;;;;;;;9.15;7.22;;;;;;;20.44;51.34;95563.91;5065062;28;20244;-82
2022/10/20 07:11:24;;;;;;;12.20;8.20;;;;;;;20.94;49.38;95564.28;5063703;28;20158;-82
2022/10/20 07:13:50;;;;;;;14.07;7.65;;;;;;;21.69;48.64;95578.38;5056212;28;20207;-83
2022/10/20 07:16:19;;;;;;;11.38;8.10;;;;;;;21.61;47.01;95573.50;5063560;28;20167;-82
2022/10/20 07:18:45;;;;;;;12.60;8.32;;;;;;;21.67;47.98;95548.34;5064791;28;20175;-81
2022/10/20 07:21:13;;;;;;;10.65;7.43;;;;;;;22.08;46.29;95552.75;5063669;28;20261;-81
2022/10/20 07:23:39;;;;;;;14.35;7.88;;;;;;;22.04;45.24;95550.88;5056373;28;20163;-83
2022/10/20 07:26:07;;;;;;;12.88;7.90;;;;;;;21.31;47.09;95574.97;5055848;28;20155;-83
2022/10/20 07:28:33;;;;;;;13.65;7.78;;;;;;;20.34;48.70;95537.88;5053892;28;20194;-83
2022/10/20 07:31:04;;;;;;;15.18;8.73;;;;;;;19.55;50.96;95554.41;5053723;28;20166;-83
2022/10/20 07:33:30;;;;;;;13.13;7.93;;;;;;;19.22;53.56;95576.69;5052535;28;20977;-82
2022/10/20 07:35:55;;;;;;;12.52;8.10;;;;;;;19.54;53.54;95582.22;5053472;28;20171;-83
2022/10/20 07:38:21;;;;;;;15.35;8.63;;;;;;;19.61;52.15;95578.53;5059228;28;20530;-82
2022/10/20 07:40:46;;;;;;;13.02;8.77;;;;;;;18.94;51.82;95517.31;5072396;28;20165;-81
2022/10/20 07:43:11;;;;;;;12.85;8.25;;;;;;;18.67;54.27;95507.34;5089111;28;20181;-84
2022/10/20 07:45:37;;;;;;;11.38;7.63;;;;;;;18.81;53.51;95564.63;5065003;28;20191;-82
2022/10/20 07:48:05;;;;;;;14.63;8.05;;;;;;;17.96;54.59;95526.69;5053296;28;20240;-83
2022/10/20 07:50:31;;;;;;;9.88;7.30;;;;;;;17.48;55.81;95505.78;5053193;28;20227;-84
2022/10/20 07:52:57;;;;;;;11.65;7.55;;;;;;;17.49;56.42;95526.88;5053624;28;20522;-85
2022/10/20 07:55:22;;;;;;;13.13;8.02;;;;;;;17.18;57.53;95506.84;5068880;28;20168;-84
2022/10/20 07:57:47;;;;;;;8.23;7.10;;;;;;;17.12;57.03;95509.63;5068529;28;20225;-82
2022/10/20 08:00:13;;;;;;;12.45;7.22;;;;;;;16.92;58.32;95524.13;5053178;28;20597;-83
2022/10/20 08:02:41;;;;;;;12.13;7.70;;;;;;;16.69;58.91;95492.22;5052889;28;20155;-84
2022/10/20 08:05:07;;;;;;;18.83;15.27;;;;;;;17.37;60.01;95539.41;5053062;28;20171;-82
2022/10/20 08:07:34;;;;;;;10.50;7.63;;;;;;;18.09;58.69;95566.34;5053076;28;20289;-82
2022/10/20 08:09:59;;;;;;;21.50;7.55;;;;;;;18.23;55.44;95522.38;5053055;28;20167;-84
2022/10/20 08:12:25;;;;;;;16.30;7.63;;;;;;;18.71;54.01;95566.34;5068514;28;20173;-86
2022/10/20 08:14:50;;;;;;;8.10;6.07;;;;;;;18.85;54.53;95515.03;5052921;28;20167;-82
2022/10/20 08:17:17;;;;;;;14.43;6.45;;;;;;;19.64;53.91;95576.16;5053299;28;20163;-79
2022/10/20 08:19:42;;;;;;;14.77;7.15;;;;;;;19.20;52.83;95474.66;5052824;28;20248;-84
2022/10/20 08:22:08;;;;;;;8.95;6.60;;;;;;;19.61;50.81;95511.75;5052731;28;20205;-85
2022/10/20 08:24:33;;;;;;;9.80;5.32;;;;;;;19.74;50.12;95522.03;5084824;28;20159;-84
2022/10/20 08:27:03;;;;;;;9.90;4.80;;;;;;;20.16;51.62;95571.09;5051210;28;20171;-83
2022/10/20 08:29:29;;;;;;;8.50;5.65;;;;;;;20.07;50.95;95521.00;5065565;28;20487;-82
2022/10/20 08:31:54;;;;;;;8.57;5.85;;;;;;;20.44;49.20;95556.69;5070922;28;20211;-82
2022/10/20 08:34:19;;;;;;;11.30;5.28;;;;;;;20.25;49.39;95509.94;5071255;28;20173;-81
2022/10/20 08:36:45;;;;;;;7.70;5.63;;;;;;;20.48;48.89;95520.34;5071829;28;20523;-82
2022/10/20 08:39:10;;;;;;;7.68;5.03;;;;;;;20.39;47.41;95513.84;5072059;28;20162;-83
2022/10/20 08:41:41;;;;;;;11.02;5.60;;;;;;;20.83;48.62;95562.63;5072446;28;20162;-82
2022/10/20 08:44:07;;;;;;;9.27;5.45;;;;;;;20.48;47.58;95504.31;5072643;28;20640;-84
2022/10/20 08:46:36;;;;;;;11.35;5.50;;;;;;;20.94;47.25;95555.44;5071966;28;20180;-83
2022/10/20 08:49:04;;;;;;;8.63;5.03;;;;;;;21.06;46.98;95551.50;5060103;28;20230;-82
2022/10/20 08:51:32;;;;;;;8.07;5.03;;;;;;;20.50;47.28;95455.88;5052121;28;20159;-83
2022/10/20 08:54:00;;;;;;;7.97;5.32;;;;;;;21.08;46.16;95548.56;5050148;28;20174;-84
2022/10/20 08:56:29;;;;;;;8.23;5.18;;;;;;;21.13;45.52;95553.94;5052018;28;20170;-83
2022/10/20 08:58:55;;;;;;;8.23;5.32;;;;;;;21.02;44.17;95549.59;5062266;28;20224;-84
2022/10/20 09:01:33;;;;;;;10.07;4.70;;;;;;;20.91;45.70;95550.63;5074600;28;20166;-83
2022/10/20 09:04:08;;;;;;;8.82;5.03;;;;;;;20.88;44.58;95546.56;5067206;28;20167;-83
2022/10/20 09:06:34;;;;;;;11.07;4.25;;;;;;;21.06;45.95;95551.50;5066692;28;20249;-84
2022/10/20 09:09:00;;;;;;;6.30;3.72;;;;;;;21.06;44.45;95562.22;5051530;28;20215;-83
2022/10/20 09:11:35;;;;;;;6.93;3.97;;;;;;;20.78;42.34;95532.31;5051160;28;20170;-83
2022/10/20 09:14:01;;;;;;;5.90;3.75;;;;;;;20.72;45.85;95536.84;5070088;28;20239;-83
2022/10/20 09:16:36;;;;;;;6.22;3.63;;;;;;;20.48;43.28;95503.50;5071604;28;20625;-84
2022/10/20 09:19:04;;;;;;;4.65;3.58;;;;;;;20.90;44.97;95557.84;5066258;28;20178;-82
2022/10/20 09:21:32;;;;;;;4.60;3.70;;;;;;;20.81;44.45;95537.16;5066161;28;20174;-84
2022/10/20 09:24:05;;;;;;;3.92;3.00;;;;;;;20.85;42.91;95548.94;5052941;28;20175;-84
2022/10/20 09:26:43;;;;;;;3.72;2.92;;;;;;;20.83;42.96;95561.81;5061159;28;20645;-84
2022/10/20 09:29:08;;;;;;;4.60;3.40;;;;;;;20.71;42.07;95557.44;5078233;28;20198;-84
2022/10/20 09:31:35;;;;;;;9.65;3.40;;;;;;;20.61;43.25;95553.88;5063411;28;20618;-83
2022/10/20 09:34:00;;;;;;;11.27;4.70;;;;;;;20.15;42.88;95502.63;5061986;28;20166;-83
2022/10/20 09:36:34;;;;;;;4.43;3.08;;;;;;;20.46;42.73;95553.75;5062509;28;20193;-87
2022/10/20 09:39:00;;;;;;;7.55;3.70;;;;;;;20.16;43.47;95528.31;5060379;28;20163;-87
2022/10/20 09:41:30;;;;;;;7.65;3.38;;;;;;;20.05;44.26;95515.94;5050985;28;20551;-85
2022/10/20 09:44:03;;;;;;;5.38;3.35;;;;;;;19.99;42.80;95530.31;5051999;28;20167;-86
2022/10/20 09:46:43;;;;;;;3.95;3.05;;;;;;;19.81;43.39;95528.78;5052450;28;20183;-86
2022/10/20 09:49:27;;;;;;;7.43;4.07;;;;;;;19.38;43.50;95486.06;5051005;28;20218;-86
2022/10/20 09:51:53;;;;;;;4.78;4.10;;;;;;;19.40;44.42;95490.13;5060873;28;20255;-85
2022/10/20 09:54:22;;;;;;;6.75;3.80;;;;;;;19.64;44.82;95535.28;5070671;28;20204;-86
2022/10/20 09:56:48;;;;;;;5.47;3.50;;;;;;;19.25;43.97;95481.13;5059747;28;20179;-86
2022/10/20 09:59:32;;;;;;;5.40;3.22;;;;;;;19.21;44.85;95486.16;5069167;28;20167;-86
2022/10/20 10:02:19;;;;;;;5.28;3.03;;;;;;;19.24;43.92;95507.03;5049927;28;20191;-86
2022/10/20 10:04:48;;;;;;;9.02;3.25;;;;;;;19.33;45.89;95521.56;5065134;28;20190;-86
2022/10/20 10:07:25;;;;;;;9.10;3.53;;;;;;;19.37;45.01;95545.91;5071765;28;20198;-86
2022/10/20 10:10:00;;;;;;;3.60;2.83;;;;;;;19.27;44.49;95540.44;5067699;28;20174;-85
2022/10/20 10:12:28;;;;;;;5.90;3.53;;;;;;;19.23;44.47;95537.44;5052184;28;20205;-86
2022/10/20 10:14:57;;;;;;;4.97;3.28;;;;;;;18.90;45.07;95495.66;5055234;28;20175;-86
2022/10/20 10:17:40;;;;;;;5.10;3.35;;;;;;;18.85;45.35;95492.94;5058369;28;20182;-86
2022/10/20 10:20:26;;;;;;;5.35;3.10;;;;;;;19.04;45.12;95531.59;5060926;28;20175;-86
2022/10/20 10:22:52;;;;;;;4.28;3.33;;;;;;;18.98;45.47;95519.25;5050659;28;20195;-86
2022/10/20 10:25:25;;;;;;;6.47;3.20;;;;;;;18.67;44.39;95474.53;5086883;28;20185;-86
2022/10/20 10:28:05;;;;;;;6.78;3.90;;;;;;;18.92;45.80;95524.75;5073128;28;20737;-87
2022/10/20 10:30:33;;;;;;;4.75;3.30;;;;;;;18.81;45.88;95502.47;5061667;28;20317;-87
2022/10/20 10:32:59;;;;;;;6.40;3.40;;;;;;;18.85;45.83;95524.94;5059185;28;20193;-86
2022/10/20 10:35:31;;;;;;;7.20;3.63;;;;;;;18.82;45.86;95523.56;5064306;28;20182;-86
2022/10/20 10:37:57;;;;;;;4.78;3.28;;;;;;;18.48;45.32;95466.78;5059477;28;20174;-86
2022/10/20 10:40:44;;;;;;;5.63;2.92;;;;;;;18.57;44.28;95485.88;5065516;28;20238;-86
2022/10/20 10:43:15;;;;;;;4.03;2.72;;;;;;;18.70;45.51;95522.84;5054583;28;20257;-86
2022/10/20 10:45:46;;;;;;;5.97;2.85;;;;;;;18.64;44.69;95505.16;5071742;28;20283;-86
2022/10/20 10:48:37;;;;;;;4.43;2.55;;;;;;;17.88;44.81;95407.22;5058046;28;20198;-86
2022/10/20 10:51:30;;;;;;;4.63;3.10;;;;;;;18.48;46.20;95501.44;5071438;28;20194;-86
2022/10/20 10:54:12;;;;;;;7.70;3.97;;;;;;;18.17;46.98;95458.53;5063149;28;20178;-86
2022/10/20 10:56:54;;;;;;;7.10;3.28;;;;;;;18.24;46.85;95461.88;5056499;28;20278;-86
2022/10/20 10:59:34;;;;;;;7.32;3.50;;;;;;;18.44;46.24;95478.16;5051315;28;20273;-86
2022/10/20 11:02:45;;;;;;;6.28;3.33;;;;;;;18.40;46.06;95501.03;5051116;28;20236;-86
2022/10/20 11:05:25;;;;;;;3.42;2.90;;;;;;;18.06;46.55;95439.75;5049587;28;20729;-86
2022/10/20 11:08:23;;;;;;;6.47;3.30;;;;;;;18.37;47.08;95489.00;5071994;28;20225;-86
2022/10/20 11:11:23;;;;;;;4.70;2.95;;;;;;;18.33;45.94;95479.88;5070417;28;20194;-86
2022/10/20 11:14:21;;;;;;;4.70;2.83;;;;;;;18.30;46.85;95488.34;5070874;28;20198;-86
2022/10/20 11:17:15;;;;;;;6.07;2.83;;;;;;;18.21;46.25;95465.81;5064818;28;20170;-86
2022/10/20 11:20:07;;;;;;;4.10;3.35;;;;;;;18.03;46.63;95439.41;5061026;28;20183;-85
2022/10/20 11:23:16;;;;;;;10.07;3.50;;;;;;;18.27;45.24;95478.16;5061796;28;20183;-85
2022/10/20 11:26:00;;;;;;;4.60;3.20;;;;;;;18.30;46.57;95469.69;5064706;28;20565;-86
2022/10/20 11:28:35;;;;;;;3.35;3.05;;;;;;;18.08;46.71;95428.81;5072197;28;20247;-87
2022/10/20 11:31:03;;;;;;;3.28;2.97;;;;;;;18.20;45.60;95437.56;5072037;28;20170;-86
2022/10/20 11:33:43;;;;;;;6.38;3.08;;;;;;;18.14;46.47;95422.53;5070536;28;20179;-84
2022/10/20 11:36:15;;;;;;;3.58;2.72;;;;;;;18.39;45.90;95462.09;5060715;28;20239;-85